createdAt,value
2019-03-12T00:01:01.992Z,3.01
2019-03-12T00:03:32.008Z,3.01
2019-03-12T00:06:01.818Z,2.77
2019-03-12T00:08:31.420Z,2.73
2019-03-12T00:11:01.204Z,2.83
2019-03-12T00:13:30.836Z,2.81
2019-03-12T00:16:00.480Z,2.84
2019-03-12T00:18:30.507Z,2.79
2019-03-12T00:21:00.134Z,2.61
2019-03-12T00:23:30.374Z,2.39
2019-03-12T00:26:00.089Z,2.36
2019-03-12T00:28:31.304Z,2.41
2019-03-12T00:31:01.264Z,2.46
2019-03-12T00:33:31.365Z,2.42
2019-03-12T00:36:01.013Z,2.41
2019-03-12T00:38:30.557Z,2.41
2019-03-12T00:41:00.140Z,2.45
2019-03-12T00:43:30.000Z,2.16
2019-03-12T00:45:59.759Z,2.16
2019-03-12T00:48:29.991Z,2.42
2019-03-12T00:51:02.158Z,2.38
2019-03-12T00:53:32.004Z,2.38
2019-03-12T00:56:01.662Z,2.25
2019-03-12T00:58:31.274Z,2.38
2019-03-12T01:01:01.065Z,2.38
2019-03-12T01:03:30.848Z,2.40
2019-03-12T01:06:00.545Z,2.35
2019-03-12T01:08:30.401Z,2.32
2019-03-12T01:11:00.056Z,2.32
2019-03-12T01:13:30.324Z,2.32
2019-03-12T01:16:01.121Z,2.26
2019-03-12T01:18:30.691Z,2.26
2019-03-12T01:21:00.363Z,2.14
2019-03-12T01:23:30.643Z,2.28
2019-03-12T01:26:00.771Z,2.20
2019-03-12T01:28:30.275Z,2.22
2019-03-12T01:30:59.883Z,2.13
2019-03-12T01:33:30.008Z,2.12
2019-03-12T01:35:59.638Z,2.12
2019-03-12T01:38:29.321Z,2.11
2019-03-12T01:40:59.062Z,2.18
2019-03-12T01:43:28.917Z,2.13
2019-03-12T01:45:58.699Z,2.15
2019-03-12T01:48:28.826Z,2.08
2019-03-12T01:50:58.573Z,2.11
2019-03-12T01:53:28.229Z,2.02
2019-03-12T01:55:57.743Z,1.95
2019-03-12T01:58:27.583Z,1.94
2019-03-12T02:00:57.715Z,1.89
2019-03-12T02:03:27.294Z,1.89
2019-03-12T02:05:56.882Z,1.85
2019-03-12T02:08:26.798Z,1.79
2019-03-12T02:10:56.355Z,1.81
2019-03-12T02:13:26.006Z,1.81
2019-03-12T02:15:56.076Z,1.73
2019-03-12T02:18:25.779Z,1.73
2019-03-12T02:20:55.481Z,1.72
2019-03-12T02:23:25.136Z,1.77
2019-03-12T02:25:54.759Z,1.76
2019-03-12T02:28:24.566Z,1.78
2019-03-12T02:30:54.398Z,1.76
2019-03-12T02:33:24.216Z,1.60
2019-03-12T02:35:53.925Z,1.64
2019-03-12T02:38:24.054Z,1.64
2019-03-12T02:40:53.719Z,1.55
2019-03-12T02:43:23.482Z,1.49
2019-03-12T02:45:53.279Z,1.49
2019-03-12T02:48:23.078Z,1.49
2019-03-12T02:50:52.818Z,1.42
2019-03-12T02:53:22.415Z,1.37
2019-03-12T02:55:52.091Z,1.44
2019-03-12T02:58:22.558Z,1.44
2019-03-12T03:00:52.304Z,1.47
2019-03-12T03:03:22.365Z,1.51
2019-03-12T03:06:11.065Z,1.59
2019-03-12T03:08:40.758Z,1.49
2019-03-12T03:11:10.644Z,1.55
2019-03-12T03:13:40.613Z,1.35
2019-03-12T03:16:10.823Z,1.35
2019-03-12T03:18:40.463Z,1.35
2019-03-12T03:21:09.985Z,1.36
2019-03-12T03:23:39.750Z,1.36
2019-03-12T03:26:09.779Z,1.19
2019-03-12T03:28:39.359Z,1.23
2019-03-12T03:31:10.825Z,1.27
2019-03-12T03:33:40.557Z,1.36
2019-03-12T03:36:11.265Z,1.36
2019-03-12T03:38:41.384Z,1.25
2019-03-12T03:41:14.269Z,1.18
2019-03-12T03:43:44.219Z,1.18
2019-03-12T03:46:14.525Z,1.22
2019-03-12T03:48:44.305Z,1.19
2019-03-12T03:51:14.935Z,1.15
2019-03-12T03:53:44.897Z,1.09
2019-03-12T03:56:14.676Z,1.29
2019-03-12T03:58:44.311Z,1.39
2019-03-12T04:01:14.220Z,1.32
2019-03-12T04:03:44.246Z,1.29
2019-03-12T04:06:14.011Z,1.33
2019-03-12T04:08:43.923Z,1.33
2019-03-12T04:11:13.845Z,1.33
2019-03-12T04:13:43.949Z,1.33
2019-03-12T04:16:13.719Z,1.35
2019-03-12T04:18:43.402Z,1.43
2019-03-12T04:21:13.002Z,1.43
2019-03-12T04:23:43.005Z,1.50
2019-03-12T04:26:12.673Z,1.45
2019-03-12T04:28:42.151Z,1.43
2019-03-12T04:31:11.963Z,1.43
2019-03-12T04:34:35.330Z,1.52
2019-03-12T04:37:06.710Z,1.42
2019-03-12T04:39:36.535Z,1.40
2019-03-12T04:42:06.246Z,1.49
2019-03-12T04:44:39.124Z,1.49
2019-03-12T04:47:13.169Z,1.32
2019-03-12T04:49:43.097Z,1.38
2019-03-12T04:52:14.112Z,1.41
2019-03-12T04:54:43.701Z,1.35
2019-03-12T04:57:13.116Z,1.32
2019-03-12T04:59:42.939Z,1.38
2019-03-12T05:02:12.718Z,1.38
2019-03-12T05:04:42.514Z,1.32
2019-03-12T05:07:12.055Z,1.32
2019-03-12T05:09:42.148Z,1.43
2019-03-12T05:12:12.568Z,1.50
2019-03-12T05:14:44.433Z,1.50
2019-03-12T05:17:24.360Z,1.39
2019-03-12T05:19:53.829Z,1.41
2019-03-12T05:22:25.022Z,1.40
2019-03-12T05:24:54.578Z,1.40
2019-03-12T05:27:25.096Z,1.48
2019-03-12T05:29:54.860Z,1.47
2019-03-12T05:32:27.455Z,1.49
2019-03-12T05:35:01.514Z,1.48
2019-03-12T05:37:31.000Z,1.48
2019-03-12T05:40:01.630Z,1.48
2019-03-12T05:42:31.338Z,1.43
2019-03-12T05:45:01.396Z,1.48
2019-03-12T05:47:31.172Z,1.48
2019-03-12T05:50:00.789Z,1.53
2019-03-12T05:52:30.964Z,1.53
2019-03-12T05:55:00.755Z,1.40
2019-03-12T05:57:30.319Z,1.42
2019-03-12T05:59:59.798Z,1.42
2019-03-12T06:02:29.416Z,1.54
2019-03-12T06:04:59.027Z,1.54
2019-03-12T06:07:29.297Z,1.62
2019-03-12T06:09:59.193Z,1.62
2019-03-12T06:12:29.370Z,1.71
2019-03-12T06:14:58.908Z,1.71
2019-03-12T06:17:29.080Z,1.69
2019-03-12T06:19:58.455Z,1.84
2019-03-12T06:22:28.300Z,1.70
2019-03-12T06:24:58.353Z,1.68
2019-03-12T06:27:27.827Z,1.68
2019-03-12T06:29:57.691Z,1.88
2019-03-12T06:32:37.452Z,1.97
2019-03-12T06:35:15.034Z,2.00
2019-03-12T06:38:09.112Z,2.15
2019-03-12T06:40:43.756Z,2.20
2019-03-12T06:43:31.098Z,2.12
2019-03-12T06:46:22.888Z,2.23
2019-03-12T06:49:09.911Z,2.28
2019-03-12T06:51:56.654Z,2.32
2019-03-12T06:54:57.239Z,2.32
2019-03-12T06:57:53.963Z,2.40
2019-03-12T07:00:43.614Z,2.40
2019-03-12T07:03:27.807Z,2.31
2019-03-12T07:06:17.055Z,2.45
2019-03-12T07:09:08.711Z,2.45
2019-03-12T07:11:51.716Z,2.66
2019-03-12T07:14:39.024Z,2.71
2019-03-12T07:17:15.018Z,2.84
2019-03-12T07:20:06.442Z,2.84
2019-03-12T07:22:47.335Z,3.05
2019-03-12T07:25:35.444Z,3.05
2019-03-12T07:28:23.308Z,3.04
2019-03-12T07:31:08.054Z,3.04
2019-03-12T07:33:46.627Z,2.98
2019-03-12T07:36:27.032Z,3.12
2019-03-12T07:39:04.636Z,3.05
2019-03-12T07:41:39.292Z,3.05
2019-03-12T07:44:26.249Z,3.18
2019-03-12T07:47:17.568Z,3.41
2019-03-12T07:50:11.937Z,3.59
2019-03-12T07:53:00.702Z,3.45
2019-03-12T07:55:45.180Z,3.54
2019-03-12T07:58:50.786Z,3.54
2019-03-12T08:01:39.383Z,3.76
2019-03-12T08:04:43.486Z,3.76
2019-03-12T08:07:34.432Z,3.89
2019-03-12T08:10:15.932Z,3.89
2019-03-12T08:13:02.747Z,3.89
2019-03-12T08:15:44.284Z,3.95
2019-03-12T08:18:35.502Z,4.05
2019-03-12T08:21:22.971Z,4.29
2019-03-12T08:24:06.240Z,4.12
2019-03-12T08:26:54.949Z,4.31
2019-03-12T08:29:46.511Z,4.11
2019-03-12T08:32:47.192Z,4.18
2019-03-12T08:35:50.815Z,4.32
2019-03-12T08:38:46.526Z,4.32
2019-03-12T08:41:38.249Z,4.40
2019-03-12T08:44:16.348Z,4.42
2019-03-12T08:47:05.259Z,4.60
2019-03-12T08:49:44.910Z,4.60
2019-03-12T08:52:40.103Z,4.73
2019-03-12T08:55:28.863Z,4.77
2019-03-12T08:58:08.498Z,4.77
2019-03-12T09:01:07.389Z,4.94
2019-03-12T09:04:03.417Z,4.99
2019-03-12T09:06:40.069Z,4.99
2019-03-12T09:09:28.793Z,5.01
2019-03-12T09:12:26.105Z,4.92
2019-03-12T09:15:14.999Z,4.95
2019-03-12T09:18:04.122Z,4.95
2019-03-12T09:20:44.307Z,5.08
2019-03-12T09:23:31.556Z,5.08
2019-03-12T09:26:11.393Z,5.08
2019-03-12T09:29:12.283Z,5.34
2019-03-12T09:31:59.707Z,5.50
2019-03-12T09:34:46.218Z,5.46
2019-03-12T09:37:36.600Z,5.93
2019-03-12T09:40:23.744Z,5.86
2019-03-12T09:43:14.118Z,5.86
2019-03-12T09:45:54.005Z,6.01
2019-03-12T09:48:41.102Z,6.04
2019-03-12T09:51:21.130Z,6.26
2019-03-12T09:54:26.579Z,6.36
2019-03-12T09:57:15.054Z,6.36
2019-03-12T10:00:15.609Z,6.33
2019-03-12T10:02:46.335Z,6.56
2019-03-12T10:05:23.700Z,6.56
2019-03-12T10:08:08.611Z,6.49
2019-03-12T10:10:57.196Z,6.65
2019-03-12T10:13:48.023Z,6.65
2019-03-12T10:16:35.377Z,6.87
2019-03-12T10:19:20.329Z,6.88
2019-03-12T10:22:13.905Z,6.88
2019-03-12T10:25:01.167Z,7.03
2019-03-12T10:27:49.876Z,7.03
2019-03-12T10:30:47.154Z,7.07
2019-03-12T10:33:41.532Z,7.06
2019-03-12T10:36:20.985Z,7.16
2019-03-12T10:39:42.316Z,7.10
2019-03-12T10:42:21.891Z,7.16
2019-03-12T10:45:00.987Z,7.06
2019-03-12T10:47:31.099Z,7.16
2019-03-12T10:50:00.988Z,7.07
2019-03-12T10:52:31.022Z,7.08
2019-03-12T10:55:12.413Z,7.28
2019-03-12T10:57:32.091Z,7.28
2019-03-12T11:00:02.020Z,7.63
2019-03-12T11:02:31.668Z,7.51
2019-03-12T11:05:01.196Z,7.60
2019-03-12T11:07:30.956Z,7.50
2019-03-12T11:10:00.513Z,7.50
2019-03-12T11:12:30.196Z,7.53
2019-03-12T11:14:59.815Z,7.76
2019-03-12T11:17:29.254Z,7.81
2019-03-12T11:19:59.666Z,7.81
2019-03-12T11:22:29.754Z,7.64
2019-03-12T11:24:59.220Z,8.06
2019-03-12T11:27:28.876Z,8.06
2019-03-12T11:29:59.142Z,8.22
2019-03-12T11:32:28.577Z,8.28
2019-03-12T11:34:58.615Z,8.43
2019-03-12T11:37:28.154Z,8.17
2019-03-12T11:39:57.977Z,8.19
2019-03-12T11:42:30.571Z,8.00
2019-03-12T11:45:13.616Z,8.17
2019-03-12T11:47:35.034Z,8.38
2019-03-12T11:50:06.341Z,8.38
2019-03-12T11:52:36.416Z,8.09
2019-03-12T11:55:06.851Z,8.17
2019-03-12T11:57:36.791Z,8.27
2019-03-12T12:00:07.944Z,8.31
2019-03-12T12:02:37.941Z,8.06
2019-03-12T12:05:08.414Z,8.17
2019-03-12T12:07:39.673Z,8.17
2019-03-12T12:10:12.231Z,8.34
2019-03-12T12:12:48.233Z,8.34
2019-03-12T12:15:19.095Z,8.33
2019-03-12T12:17:52.768Z,8.52
2019-03-12T12:20:29.510Z,8.43
2019-03-12T12:22:55.522Z,8.47
2019-03-12T12:25:25.303Z,8.56
2019-03-12T12:27:54.865Z,8.49
2019-03-12T12:30:25.112Z,8.49
2019-03-12T12:32:55.069Z,8.38
2019-03-12T12:35:24.583Z,8.52
2019-03-12T12:37:54.231Z,8.66
2019-03-12T12:40:24.739Z,8.87
2019-03-12T12:42:54.341Z,8.87
2019-03-12T12:45:24.935Z,8.84
2019-03-12T12:47:54.543Z,8.63
2019-03-12T12:50:24.888Z,8.69
2019-03-12T12:52:57.351Z,8.55
2019-03-12T12:55:26.864Z,8.60
2019-03-12T12:57:56.860Z,8.54
2019-03-12T13:00:26.574Z,8.53
2019-03-12T13:02:56.318Z,8.53
2019-03-12T13:05:26.122Z,8.28
2019-03-12T13:07:55.589Z,8.59
2019-03-12T13:10:26.147Z,8.73
2019-03-12T13:12:56.050Z,8.73
2019-03-12T13:15:26.605Z,8.63
2019-03-12T13:17:56.711Z,8.69
2019-03-12T13:20:30.195Z,8.60
2019-03-12T13:22:59.794Z,8.72
2019-03-12T13:25:29.256Z,8.75
2019-03-12T13:27:58.722Z,8.64
2019-03-12T13:30:28.539Z,8.67
2019-03-12T13:32:59.077Z,8.59
2019-03-12T13:35:29.017Z,8.96
2019-03-12T13:37:59.211Z,8.82
2019-03-12T13:40:30.241Z,9.00
2019-03-12T13:42:59.904Z,8.91
2019-03-12T13:45:29.990Z,8.91
2019-03-12T13:47:59.460Z,8.91
2019-03-12T13:50:29.213Z,8.91
2019-03-12T13:52:59.100Z,8.76
2019-03-12T13:55:28.938Z,8.92
2019-03-12T13:58:02.074Z,8.79
2019-03-12T14:00:33.486Z,8.63
2019-03-12T14:03:04.863Z,8.62
2019-03-12T14:05:44.937Z,8.59
2019-03-12T14:08:14.741Z,8.59
2019-03-12T14:10:44.455Z,8.55
2019-03-12T14:13:15.346Z,8.55
2019-03-12T14:15:47.450Z,8.57
2019-03-12T14:18:17.062Z,8.51
2019-03-12T14:20:52.610Z,8.63
2019-03-12T14:23:36.571Z,8.60
2019-03-12T14:26:06.227Z,8.68
2019-03-12T14:28:35.597Z,8.68
2019-03-12T14:31:05.377Z,8.62
2019-03-12T14:33:35.384Z,8.48
2019-03-12T14:36:04.914Z,8.44
2019-03-12T14:38:34.329Z,8.44
2019-03-12T14:41:06.386Z,8.54
2019-03-12T14:43:35.732Z,8.34
2019-03-12T14:46:05.846Z,8.34
2019-03-12T14:48:52.710Z,8.49
2019-03-12T14:51:51.674Z,8.49
2019-03-12T14:54:21.358Z,8.32
2019-03-12T14:56:51.502Z,8.28
2019-03-12T14:59:21.144Z,8.28
2019-03-12T15:01:51.282Z,8.15
2019-03-12T15:04:20.903Z,8.28
2019-03-12T15:06:50.725Z,8.14
2019-03-12T15:09:20.131Z,8.12
2019-03-12T15:11:49.543Z,8.23
2019-03-12T15:14:19.330Z,8.19
2019-03-12T15:16:51.719Z,8.14
2019-03-12T15:19:25.752Z,8.08
2019-03-12T15:21:57.880Z,8.14
2019-03-12T15:24:28.018Z,8.14
2019-03-12T15:26:57.649Z,8.16
2019-03-12T15:29:31.140Z,8.13
2019-03-12T15:32:04.503Z,8.13
2019-03-12T15:37:12.799Z,8.48
2019-03-12T15:39:46.377Z,8.47
2019-03-12T15:42:16.114Z,8.55
2019-03-12T15:44:45.577Z,8.55
2019-03-12T15:47:18.379Z,8.15
2019-03-12T15:49:50.206Z,8.15
2019-03-12T15:52:20.049Z,7.95
2019-03-12T15:54:49.481Z,7.96
2019-03-12T15:57:19.160Z,8.02
2019-03-12T15:59:48.966Z,8.02
2019-03-12T16:02:18.934Z,8.09
2019-03-12T16:04:48.930Z,8.01
2019-03-12T16:07:18.308Z,8.00
2019-03-12T16:09:48.051Z,8.00
2019-03-12T16:12:18.032Z,7.94
2019-03-12T16:14:47.726Z,7.89
2019-03-12T16:17:17.591Z,7.85
2019-03-12T16:19:47.179Z,7.97
2019-03-12T16:22:16.795Z,7.97
2019-03-12T16:24:47.097Z,7.91
2019-03-12T16:27:17.077Z,7.84
2019-03-12T16:29:47.109Z,7.95
2019-03-12T16:32:16.980Z,7.82
2019-03-12T16:34:46.435Z,7.82
2019-03-12T16:37:24.306Z,7.85
2019-03-12T16:39:54.141Z,7.85
2019-03-12T16:42:34.559Z,7.78
2019-03-12T16:44:55.098Z,7.78
2019-03-12T16:47:25.701Z,7.78
2019-03-12T16:49:59.973Z,7.73
2019-03-12T16:52:29.292Z,7.76
2019-03-12T16:54:58.740Z,7.73
2019-03-12T16:57:28.849Z,7.73
2019-03-12T16:59:59.102Z,7.79
2019-03-12T17:02:31.087Z,7.71
2019-03-12T17:05:03.899Z,7.76
2019-03-12T17:07:36.334Z,7.76
2019-03-12T17:10:07.127Z,7.75
2019-03-12T17:12:40.881Z,7.76
2019-03-12T17:15:11.807Z,7.76
2019-03-12T17:17:41.523Z,7.74
2019-03-12T17:20:12.174Z,7.79
2019-03-12T17:22:44.488Z,7.79
2019-03-12T17:25:14.289Z,7.81
2019-03-12T17:27:46.866Z,7.67
2019-03-12T17:30:17.819Z,7.67
2019-03-12T17:32:48.151Z,7.79
2019-03-12T17:35:20.286Z,7.77
2019-03-12T17:37:53.396Z,7.77
2019-03-12T17:40:30.425Z,7.65
2019-03-12T17:43:01.679Z,7.65
2019-03-12T17:45:32.620Z,7.66
2019-03-12T17:48:02.763Z,7.61
2019-03-12T17:50:34.239Z,7.61
2019-03-12T17:53:09.168Z,7.59
2019-03-12T17:55:39.683Z,7.56
2019-03-12T17:58:09.194Z,7.56
2019-03-12T18:00:42.225Z,7.55
2019-03-12T18:03:17.991Z,7.52
2019-03-12T18:05:47.139Z,7.52
2019-03-12T18:08:17.364Z,7.50
2019-03-12T18:10:50.343Z,7.48
2019-03-12T18:13:20.617Z,7.48
2019-03-12T18:15:50.183Z,7.58
2019-03-12T18:18:19.611Z,7.56
2019-03-12T18:20:55.093Z,7.55
2019-03-12T18:23:25.689Z,7.55
2019-03-12T18:25:56.078Z,7.60
2019-03-12T18:28:30.503Z,7.55
2019-03-12T18:31:00.247Z,7.57
2019-03-12T18:33:30.063Z,7.53
2019-03-12T18:36:08.835Z,7.54
2019-03-12T18:38:38.340Z,7.54
2019-03-12T18:41:15.203Z,7.59
2019-03-12T18:43:45.236Z,7.61
2019-03-12T18:46:15.190Z,7.62
2019-03-12T18:48:47.670Z,7.61
2019-03-12T18:51:17.385Z,7.66
2019-03-12T18:53:47.099Z,7.65
2019-03-12T18:56:16.755Z,7.65
2019-03-12T18:58:48.447Z,7.70
2019-03-12T19:01:21.224Z,7.70
2019-03-12T19:03:50.654Z,7.79
2019-03-12T19:06:23.604Z,7.79
2019-03-12T19:08:53.445Z,7.82
2019-03-12T19:11:23.194Z,7.79
2019-03-12T19:13:53.309Z,7.83
2019-03-12T19:16:24.962Z,7.83
2019-03-12T19:19:00.698Z,7.90
2019-03-12T19:21:30.578Z,7.98
2019-03-12T19:24:03.208Z,8.04
2019-03-12T19:26:35.669Z,8.11
2019-03-12T19:29:07.943Z,8.11
2019-03-12T19:32:07.695Z,8.10
2019-03-12T19:34:38.120Z,8.08
2019-03-12T19:37:16.990Z,8.08
2019-03-12T19:39:47.102Z,8.12
2019-03-12T19:42:16.978Z,8.12
2019-03-12T19:44:47.696Z,8.12
2019-03-12T19:47:20.293Z,8.01
2019-03-12T19:49:49.913Z,8.01
2019-03-12T19:52:23.095Z,8.06
2019-03-12T19:54:52.768Z,8.06
2019-03-12T19:57:22.294Z,7.84
2019-03-12T19:59:51.882Z,7.84
2019-03-12T20:02:21.456Z,7.68
2019-03-12T20:04:51.132Z,7.63
2019-03-12T20:07:20.613Z,7.63
2019-03-12T20:09:56.633Z,7.68
2019-03-12T20:13:12.369Z,7.66
2019-03-12T20:16:22.104Z,7.66
2019-03-12T20:19:20.992Z,7.63
2019-03-12T20:22:22.717Z,7.65
2019-03-12T20:25:35.996Z,7.65
2019-03-12T20:28:31.126Z,7.60
2019-03-12T20:31:43.258Z,7.67
2019-03-12T20:35:12.131Z,7.69
2019-03-12T20:38:19.175Z,7.67
2019-03-12T20:41:38.664Z,7.60
2019-03-12T20:44:58.721Z,7.60
2019-03-12T20:48:14.225Z,7.46
2019-03-12T20:51:31.491Z,7.45
2019-03-12T20:54:47.371Z,7.39
2019-03-12T20:58:06.353Z,7.48
2019-03-12T21:01:21.485Z,7.55
2019-03-12T21:04:38.084Z,7.55
2019-03-12T21:07:47.784Z,7.58
2019-03-12T21:11:01.837Z,7.58
2019-03-12T21:14:11.285Z,7.63
2019-03-12T21:17:21.844Z,7.63
2019-03-12T21:20:42.276Z,7.65
2019-03-12T21:23:22.366Z,7.66
2019-03-12T21:26:15.126Z,7.68
2019-03-12T21:29:35.062Z,7.57
2019-03-12T21:32:05.190Z,7.57
2019-03-12T21:34:37.157Z,7.37
2019-03-12T21:37:06.964Z,7.25
2019-03-12T21:39:36.725Z,7.16
2019-03-12T21:42:07.002Z,7.04
2019-03-12T21:44:38.091Z,6.50
2019-03-12T21:47:08.148Z,6.04
2019-03-12T21:49:39.641Z,5.75
2019-03-12T21:52:09.592Z,5.33
2019-03-12T21:54:39.733Z,5.13
2019-03-12T21:57:09.478Z,5.13
2019-03-12T21:59:41.768Z,4.78
2019-03-12T22:02:11.730Z,4.72
2019-03-12T22:04:41.185Z,4.72
2019-03-12T22:07:11.288Z,4.85
2019-03-12T22:09:40.897Z,4.47
2019-03-12T22:12:12.094Z,4.47
2019-03-12T22:14:41.707Z,4.52
2019-03-12T22:17:12.392Z,4.54
2019-03-12T22:19:41.959Z,4.57
2019-03-12T22:22:36.542Z,4.52
2019-03-12T22:25:08.498Z,4.33
2019-03-12T22:27:38.312Z,4.33
2019-03-12T22:30:12.018Z,4.28
2019-03-12T22:32:42.108Z,4.30
2019-03-12T22:35:12.104Z,4.22
2019-03-12T22:37:41.713Z,4.33
2019-03-12T22:40:12.121Z,4.06
2019-03-12T22:42:43.228Z,4.08
2019-03-12T22:45:12.812Z,4.00
2019-03-12T22:47:42.815Z,4.00
2019-03-12T22:50:12.599Z,4.05
2019-03-12T22:52:43.033Z,4.15
2019-03-12T22:55:12.849Z,4.01
2019-03-12T22:57:44.702Z,4.01
2019-03-12T23:00:15.563Z,4.17
2019-03-12T23:02:44.971Z,4.11
2019-03-12T23:05:14.576Z,4.11
2019-03-12T23:07:45.086Z,4.09
2019-03-12T23:10:14.899Z,4.16
2019-03-12T23:12:44.523Z,4.30
2019-03-12T23:15:14.394Z,4.30
2019-03-12T23:17:46.593Z,4.18
2019-03-12T23:20:16.388Z,4.30
2019-03-12T23:22:45.952Z,4.44
2019-03-12T23:25:16.316Z,4.23
2019-03-12T23:27:45.900Z,4.02
2019-03-12T23:30:15.934Z,4.02
2019-03-12T23:32:46.383Z,4.02
2019-03-12T23:35:16.134Z,4.16
2019-03-12T23:37:46.290Z,4.16
2019-03-12T23:40:16.043Z,4.09
2019-03-12T23:42:47.164Z,4.16
2019-03-12T23:45:18.218Z,4.16
2019-03-12T23:47:50.122Z,4.25
2019-03-12T23:50:19.586Z,4.30
2019-03-12T23:52:49.664Z,4.30
2019-03-12T23:55:19.942Z,4.30
2019-03-12T23:57:49.506Z,4.30
